createdAt,value
2023-02-11T00:01:00.565Z,42.72
2023-02-11T00:03:27.308Z,47.33
2023-02-11T00:05:59.386Z,49.70
2023-02-11T00:08:26.265Z,51.92
2023-02-11T00:10:54.659Z,51.70
2023-02-11T00:13:22.266Z,51.58
2023-02-11T00:15:49.686Z,50.67
2023-02-11T00:18:16.909Z,49.63
2023-02-11T00:20:44.152Z,52.45
2023-02-11T00:23:11.255Z,51.85
2023-02-11T00:25:42.749Z,46.65
2023-02-11T00:28:10.555Z,51.03
2023-02-11T00:30:37.939Z,76.57
2023-02-11T00:33:04.739Z,58.95
2023-02-11T00:35:31.461Z,55.80
2023-02-11T00:37:58.252Z,51.35
2023-02-11T00:40:25.159Z,47.65
2023-02-11T00:42:51.853Z,45.72
2023-02-11T00:45:20.925Z,48.88
2023-02-11T00:47:47.958Z,48.25
2023-02-11T00:50:14.966Z,50.45
2023-02-11T00:52:41.731Z,41.63
2023-02-11T00:55:08.792Z,47.47
2023-02-11T00:57:35.713Z,49.00
2023-02-11T01:00:04.360Z,52.35
2023-02-11T01:02:31.103Z,47.97
2023-02-11T01:04:59.781Z,46.22
2023-02-11T01:07:27.448Z,49.90
2023-02-11T01:09:54.141Z,48.97
2023-02-11T01:12:21.101Z,51.38
2023-02-11T01:14:47.831Z,49.55
2023-02-11T01:17:15.112Z,53.78
2023-02-11T01:19:42.270Z,46.00
2023-02-11T01:22:09.013Z,49.95
2023-02-11T01:24:36.080Z,49.10
2023-02-11T01:27:02.856Z,52.10
2023-02-11T01:29:29.790Z,49.67
2023-02-11T01:31:56.518Z,47.50
2023-02-11T01:34:23.262Z,47.80
2023-02-11T01:36:51.085Z,48.75
2023-02-11T01:39:17.828Z,46.75
2023-02-11T01:41:44.531Z,46.33
2023-02-11T01:44:28.570Z,49.92
2023-02-11T01:46:55.904Z,46.75
2023-02-11T01:49:33.356Z,44.15
2023-02-11T01:52:14.924Z,48.08
2023-02-11T01:55:04.526Z,44.42
2023-02-11T01:57:34.384Z,45.47
2023-02-11T02:00:20.915Z,45.83
2023-02-11T02:02:58.244Z,49.15
2023-02-11T02:05:44.458Z,51.58
2023-02-11T02:08:56.484Z,53.67
2023-02-11T02:11:23.400Z,50.97
2023-02-11T02:13:50.149Z,48.83
2023-02-11T02:16:20.144Z,48.30
2023-02-11T02:19:19.271Z,50.78
2023-02-11T02:22:15.653Z,48.50
2023-02-11T02:25:10.341Z,47.90
2023-02-11T02:27:58.325Z,52.47
2023-02-11T02:30:28.153Z,53.80
2023-02-11T02:33:22.920Z,47.42
2023-02-11T02:36:02.059Z,53.58
2023-02-11T02:38:35.545Z,51.22
2023-02-11T02:41:16.000Z,47.70
2023-02-11T02:43:45.942Z,47.25
2023-02-11T02:46:15.869Z,51.38
2023-02-11T02:48:42.886Z,51.63
2023-02-11T02:51:20.428Z,50.55
2023-02-11T02:54:18.266Z,48.67
2023-02-11T02:57:02.414Z,46.10
2023-02-11T02:59:29.076Z,48.88
2023-02-11T03:02:26.820Z,49.00
2023-02-11T03:05:02.377Z,52.45
2023-02-11T03:07:42.528Z,46.90
2023-02-11T03:10:33.173Z,50.08
2023-02-11T03:13:01.714Z,49.50
2023-02-11T03:15:31.773Z,48.95
2023-02-11T03:18:01.945Z,49.25
2023-02-11T03:20:32.753Z,45.45
2023-02-11T03:23:11.204Z,47.00
2023-02-11T03:25:45.657Z,43.97
2023-02-11T03:28:18.434Z,43.78
2023-02-11T03:30:56.902Z,45.42
2023-02-11T03:33:33.459Z,45.85
2023-02-11T03:36:08.789Z,44.58
2023-02-11T03:38:39.476Z,43.80
2023-02-11T03:41:08.002Z,47.63
2023-02-11T03:43:41.281Z,51.55
2023-02-11T03:46:10.045Z,51.07
2023-02-11T03:48:40.736Z,47.58
2023-02-11T03:51:10.287Z,49.85
2023-02-11T03:53:38.821Z,47.63
2023-02-11T03:56:09.332Z,48.90
2023-02-11T03:58:36.001Z,44.47
2023-02-11T04:01:02.946Z,47.83
2023-02-11T04:03:29.798Z,47.45
2023-02-11T04:05:56.532Z,48.95
2023-02-11T04:08:23.219Z,43.70
2023-02-11T04:10:49.959Z,46.03
2023-02-11T04:13:16.691Z,47.92
2023-02-11T04:15:43.434Z,45.97
2023-02-11T04:18:10.163Z,44.53
2023-02-11T04:20:36.914Z,45.70
2023-02-11T04:23:03.651Z,45.00
2023-02-11T04:25:30.626Z,46.20
2023-02-11T04:27:57.423Z,47.00
2023-02-11T04:30:25.356Z,44.58
2023-02-11T04:32:52.134Z,44.72
2023-02-11T04:35:18.987Z,46.78
2023-02-11T04:37:45.728Z,44.78
2023-02-11T04:40:13.191Z,42.85
2023-02-11T04:42:40.531Z,44.70
2023-02-11T04:45:07.891Z,43.13
2023-02-11T04:47:34.929Z,44.60
2023-02-11T04:50:01.651Z,45.15
2023-02-11T04:52:28.377Z,44.05
2023-02-11T04:54:55.117Z,43.78
2023-02-11T04:57:21.890Z,44.50
2023-02-11T04:59:48.931Z,48.50
2023-02-11T05:02:16.119Z,44.78
2023-02-11T05:04:42.845Z,45.95
2023-02-11T05:07:09.651Z,48.20
2023-02-11T05:09:36.424Z,45.65
2023-02-11T05:12:03.350Z,42.33
2023-02-11T05:14:30.085Z,45.00
2023-02-11T05:16:56.859Z,44.65
2023-02-11T05:19:23.617Z,46.88
2023-02-11T05:22:01.777Z,50.22
2023-02-11T05:24:30.272Z,45.78
2023-02-11T05:26:57.003Z,43.47
2023-02-11T05:29:23.732Z,41.13
2023-02-11T05:31:50.479Z,51.30
2023-02-11T05:34:17.180Z,48.97
2023-02-11T05:36:43.959Z,45.08
2023-02-11T05:39:10.771Z,42.30
2023-02-11T05:41:38.255Z,45.08
2023-02-11T05:44:05.112Z,50.67
2023-02-11T05:46:31.901Z,49.35
2023-02-11T05:48:58.767Z,51.08
2023-02-11T05:51:25.485Z,54.83
2023-02-11T05:53:52.543Z,50.95
2023-02-11T05:56:19.261Z,48.90
2023-02-11T05:58:46.243Z,50.20
2023-02-11T06:01:12.956Z,47.40
2023-02-11T06:03:39.751Z,49.90
2023-02-11T06:06:12.666Z,49.33
2023-02-11T06:08:39.912Z,52.40
2023-02-11T06:11:06.660Z,51.88
2023-02-11T06:13:33.371Z,50.70
2023-02-11T06:16:02.120Z,48.55
2023-02-11T06:18:29.585Z,48.63
2023-02-11T06:20:56.956Z,48.15
2023-02-11T06:23:23.746Z,48.00
2023-02-11T06:25:51.296Z,46.15
2023-02-11T06:28:18.426Z,49.35
2023-02-11T06:30:45.376Z,47.88
2023-02-11T06:33:12.114Z,46.90
2023-02-11T06:35:39.578Z,45.08
2023-02-11T06:38:06.289Z,42.75
2023-02-11T06:40:33.071Z,45.05
2023-02-11T06:42:59.802Z,44.97
2023-02-11T06:45:26.546Z,42.67
2023-02-11T06:47:53.649Z,45.13
2023-02-11T06:50:20.552Z,49.17
2023-02-11T06:52:47.300Z,47.38
2023-02-11T06:55:14.251Z,47.22
2023-02-11T06:57:41.053Z,47.53
2023-02-11T07:00:09.074Z,53.55
2023-02-11T07:02:36.259Z,46.78
2023-02-11T07:05:03.309Z,51.35
2023-02-11T07:07:33.000Z,60.85
2023-02-11T07:10:00.739Z,56.03
2023-02-11T07:12:27.541Z,52.72
2023-02-11T07:14:55.787Z,56.47
2023-02-11T07:17:22.999Z,60.38
2023-02-11T07:19:49.814Z,56.95
2023-02-11T07:22:16.546Z,62.97
2023-02-11T07:24:43.305Z,54.65
2023-02-11T07:27:10.059Z,49.75
2023-02-11T07:29:36.800Z,52.85
2023-02-11T07:32:03.601Z,42.95
2023-02-11T07:34:30.447Z,45.78
2023-02-11T07:36:57.186Z,43.92
2023-02-11T07:39:27.368Z,49.10
2023-02-11T07:41:54.858Z,48.28
2023-02-11T07:44:21.686Z,45.33
2023-02-11T07:46:49.329Z,48.25
2023-02-11T07:49:17.956Z,52.13
2023-02-11T07:51:44.683Z,50.40
2023-02-11T07:54:12.236Z,57.28
2023-02-11T07:56:39.006Z,52.70
2023-02-11T07:59:05.827Z,55.67
2023-02-11T08:01:32.720Z,55.10
2023-02-11T08:04:01.881Z,49.70
2023-02-11T08:06:31.491Z,46.95
2023-02-11T08:08:58.731Z,50.08
2023-02-11T08:11:28.414Z,49.60
2023-02-11T08:13:56.558Z,51.88
2023-02-11T08:16:24.511Z,47.55
2023-02-11T08:18:52.417Z,47.90
2023-02-11T08:21:20.471Z,47.10
2023-02-11T08:23:47.214Z,45.80
2023-02-11T08:26:17.525Z,51.53
2023-02-11T08:28:45.688Z,51.40
2023-02-11T08:31:17.347Z,48.88
2023-02-11T08:33:44.740Z,43.47
2023-02-11T08:36:14.494Z,45.83
2023-02-11T08:38:41.804Z,45.45
2023-02-11T08:41:09.040Z,45.15
2023-02-11T08:43:36.260Z,47.05
2023-02-11T08:46:03.997Z,42.85
2023-02-11T08:48:30.772Z,40.92
2023-02-11T08:50:57.524Z,41.28
2023-02-11T08:53:24.682Z,41.40
2023-02-11T08:55:53.317Z,50.97
2023-02-11T08:58:21.120Z,42.65
2023-02-11T09:00:49.710Z,42.88
2023-02-11T09:03:16.995Z,42.67
2023-02-11T09:05:45.234Z,43.65
2023-02-11T09:08:12.180Z,43.67
2023-02-11T09:10:39.750Z,41.85
2023-02-11T09:13:06.717Z,40.58
2023-02-11T09:15:34.556Z,48.97
2023-02-11T09:18:03.102Z,51.42
2023-02-11T09:20:30.397Z,44.00
2023-02-11T09:22:58.429Z,48.90
2023-02-11T09:25:25.661Z,43.53
2023-02-11T09:27:53.786Z,39.55
2023-02-11T09:30:20.960Z,51.22
2023-02-11T09:32:47.778Z,39.08
2023-02-11T09:35:14.497Z,39.65
2023-02-11T09:37:41.361Z,45.08
2023-02-11T09:40:08.717Z,40.47
2023-02-11T09:43:19.467Z,49.30
2023-02-11T09:45:46.412Z,44.40
2023-02-11T09:48:15.713Z,44.53
2023-02-11T09:50:47.252Z,45.78
2023-02-11T09:53:35.449Z,44.25
2023-02-11T09:56:11.180Z,46.97
2023-02-11T09:58:41.395Z,47.50
2023-02-11T10:01:31.038Z,49.50
2023-02-11T10:04:37.084Z,54.08
2023-02-11T10:07:21.128Z,49.83
2023-02-11T10:10:05.010Z,46.42
2023-02-11T10:12:47.694Z,48.67
2023-02-11T10:15:33.425Z,58.33
2023-02-11T10:18:24.983Z,64.75
2023-02-11T10:21:19.728Z,52.38
2023-02-11T10:23:51.650Z,50.05
2023-02-11T10:26:19.639Z,47.47
2023-02-11T10:28:49.541Z,44.67
2023-02-11T10:31:27.088Z,44.00
2023-02-11T10:34:04.890Z,45.97
2023-02-11T10:36:36.109Z,47.72
2023-02-11T10:39:16.397Z,45.40
2023-02-11T10:42:06.789Z,44.92
2023-02-11T10:44:39.088Z,44.65
2023-02-11T10:47:16.048Z,46.83
2023-02-11T10:49:44.915Z,45.00
2023-02-11T10:52:13.211Z,45.28
2023-02-11T10:54:40.009Z,52.95
2023-02-11T10:57:07.735Z,46.15
2023-02-11T10:59:40.569Z,47.50
2023-02-11T11:02:32.159Z,48.78
2023-02-11T11:05:02.150Z,47.10
2023-02-11T11:07:32.610Z,45.22
2023-02-11T11:10:05.167Z,48.97
2023-02-11T11:12:35.118Z,46.90
2023-02-11T11:15:11.272Z,47.05
2023-02-11T11:17:38.563Z,44.60
2023-02-11T11:20:56.046Z,47.75
2023-02-11T11:23:24.749Z,46.53
2023-02-11T11:26:16.014Z,40.80
2023-02-11T11:28:50.493Z,42.47
2023-02-11T11:33:51.890Z,42.47
2023-02-11T11:36:22.906Z,39.90
2023-02-11T11:38:56.893Z,41.70
2023-02-11T11:41:30.822Z,44.75
2023-02-11T11:43:58.879Z,31.98
2023-02-11T11:46:33.094Z,44.92
2023-02-11T11:49:54.205Z,41.25
2023-02-11T11:52:39.529Z,42.03
2023-02-11T11:55:06.454Z,46.28
2023-02-11T11:57:37.757Z,49.10
2023-02-11T12:00:05.652Z,40.50
2023-02-11T12:03:10.168Z,42.35
2023-02-11T12:05:47.434Z,41.03
2023-02-11T12:08:22.902Z,45.45
2023-02-11T12:11:12.289Z,44.28
2023-02-11T12:13:54.329Z,44.53
2023-02-11T12:16:26.827Z,44.67
2023-02-11T12:19:10.431Z,43.45
2023-02-11T12:21:47.984Z,47.35
2023-02-11T12:24:41.031Z,47.13
2023-02-11T12:27:28.200Z,45.47
2023-02-11T12:29:59.817Z,43.30
2023-02-11T12:32:42.433Z,42.83
2023-02-11T12:35:30.486Z,42.42
2023-02-11T12:38:39.166Z,38.47
2023-02-11T12:41:39.866Z,39.03
2023-02-11T12:44:11.956Z,40.45
2023-02-11T12:46:57.916Z,40.38
2023-02-11T12:49:53.091Z,39.78
2023-02-11T12:52:31.995Z,39.30
2023-02-11T12:55:03.560Z,40.00
2023-02-11T12:57:36.670Z,38.85
2023-02-11T13:00:07.666Z,39.40
2023-02-11T13:02:44.625Z,36.78
2023-02-11T13:05:38.345Z,37.45
2023-02-11T13:08:16.206Z,38.63
2023-02-11T13:10:47.307Z,35.47
2023-02-11T13:13:34.289Z,40.33
2023-02-11T13:16:07.857Z,38.50
2023-02-11T13:18:44.829Z,35.97
2023-02-11T13:21:19.934Z,33.05
2023-02-11T13:24:16.031Z,35.90
2023-02-11T13:27:04.105Z,33.08
2023-02-11T13:29:56.141Z,33.33
2023-02-11T13:32:22.869Z,38.22
2023-02-11T13:34:52.307Z,33.15
2023-02-11T13:37:37.206Z,33.75
2023-02-11T13:42:45.429Z,32.35
2023-02-11T13:45:25.158Z,34.25
2023-02-11T13:48:00.963Z,36.83
2023-02-11T13:50:28.858Z,34.70
2023-02-11T13:53:01.660Z,32.65
2023-02-11T13:55:29.525Z,31.98
2023-02-11T13:58:08.322Z,43.33
2023-02-11T14:00:35.337Z,38.88
2023-02-11T14:03:30.135Z,40.80
2023-02-11T14:06:27.735Z,38.75
2023-02-11T14:09:09.777Z,42.72
2023-02-11T14:11:48.653Z,34.90
2023-02-11T14:14:25.843Z,42.78
2023-02-11T14:16:59.013Z,40.22
2023-02-11T14:19:40.368Z,38.50
2023-02-11T14:22:10.190Z,37.60
2023-02-11T14:24:36.925Z,39.65
2023-02-11T14:27:10.942Z,39.90
2023-02-11T14:30:15.126Z,37.75
2023-02-11T14:33:19.417Z,37.85
2023-02-11T14:36:23.084Z,39.00
2023-02-11T14:39:17.933Z,34.80
2023-02-11T14:41:47.828Z,41.67
2023-02-11T14:44:22.341Z,40.65
2023-02-11T14:49:22.921Z,38.40
2023-02-11T14:51:49.709Z,41.13
2023-02-11T14:54:22.752Z,37.97
2023-02-11T14:57:07.407Z,36.38
2023-02-11T14:59:34.315Z,40.28
2023-02-11T15:02:01.401Z,38.38
2023-02-11T15:04:32.835Z,36.88
2023-02-11T15:07:05.878Z,41.47
2023-02-11T15:09:48.240Z,36.15
2023-02-11T15:12:25.298Z,36.95
2023-02-11T15:14:58.236Z,35.63
2023-02-11T15:17:30.340Z,34.90
2023-02-11T15:20:00.709Z,38.67
2023-02-11T15:22:33.476Z,36.08
2023-02-11T15:25:20.152Z,36.03
2023-02-11T15:27:52.534Z,37.65
2023-02-11T15:30:22.487Z,39.70
2023-02-11T15:32:59.950Z,40.05
2023-02-11T15:35:29.409Z,38.40
2023-02-11T15:37:57.937Z,40.97
2023-02-11T15:40:32.529Z,39.30
2023-02-11T15:42:59.459Z,41.25
2023-02-11T15:45:31.707Z,38.67
2023-02-11T15:48:10.855Z,42.92
2023-02-11T15:50:40.858Z,40.60
2023-02-11T15:53:27.897Z,40.80
2023-02-11T15:56:08.740Z,45.47
2023-02-11T15:58:40.514Z,46.83
2023-02-11T16:01:08.857Z,46.25
2023-02-11T16:03:36.319Z,45.47
2023-02-11T16:06:24.070Z,46.70
2023-02-11T16:09:03.770Z,42.90
2023-02-11T16:11:34.021Z,42.25
2023-02-11T16:14:03.687Z,45.28
2023-02-11T16:16:34.521Z,45.28
2023-02-11T16:19:05.270Z,46.33
2023-02-11T16:21:42.442Z,45.60
2023-02-11T16:24:30.287Z,44.65
2023-02-11T16:27:02.881Z,44.10
2023-02-11T16:29:32.690Z,41.95
2023-02-11T16:32:16.292Z,38.95
2023-02-11T16:34:43.111Z,43.50
2023-02-11T16:37:10.250Z,42.65
2023-02-11T16:39:36.963Z,41.70
2023-02-11T16:42:06.448Z,39.05
2023-02-11T16:44:34.526Z,43.85
2023-02-11T16:47:03.355Z,43.63
2023-02-11T16:49:35.542Z,42.40
2023-02-11T16:52:08.467Z,46.78
2023-02-11T16:54:35.237Z,44.63
2023-02-11T16:57:06.003Z,52.78
2023-02-11T16:59:32.752Z,45.90
2023-02-11T17:01:59.586Z,44.75
2023-02-11T17:04:30.011Z,56.63
2023-02-11T17:06:58.536Z,50.63
2023-02-11T17:09:30.326Z,50.22
2023-02-11T17:11:57.474Z,44.22
2023-02-11T17:14:24.393Z,49.60
2023-02-11T17:16:51.304Z,43.85
2023-02-11T17:19:23.875Z,51.22
2023-02-11T17:21:52.258Z,45.28
2023-02-11T17:24:20.300Z,41.22
2023-02-11T17:26:48.161Z,40.05
2023-02-11T17:29:18.767Z,41.90
2023-02-11T17:31:45.769Z,44.88
2023-02-11T17:34:12.742Z,43.58
2023-02-11T17:36:41.430Z,41.53
2023-02-11T17:39:08.992Z,45.60
2023-02-11T17:41:38.266Z,42.25
2023-02-11T17:44:05.486Z,45.38
2023-02-11T17:46:33.686Z,44.13
2023-02-11T17:49:02.232Z,46.17
2023-02-11T17:51:32.640Z,42.72
2023-02-11T17:54:02.238Z,42.15
2023-02-11T17:56:31.855Z,45.42
2023-02-11T17:58:58.714Z,43.45
2023-02-11T18:01:29.586Z,41.97
2023-02-11T18:03:56.377Z,43.78
2023-02-11T18:06:23.112Z,46.42
2023-02-11T18:08:49.938Z,45.10
2023-02-11T18:11:17.636Z,49.08
2023-02-11T18:13:45.577Z,46.28
2023-02-11T18:16:15.911Z,45.55
2023-02-11T18:18:43.736Z,42.85
2023-02-11T18:21:15.086Z,42.05
2023-02-11T18:23:42.133Z,41.47
2023-02-11T18:26:10.803Z,49.95
2023-02-11T18:28:38.402Z,45.17
2023-02-11T18:31:06.105Z,49.60
2023-02-11T18:33:33.628Z,45.90
2023-02-11T18:36:00.417Z,48.90
2023-02-11T18:38:27.250Z,47.13
2023-02-11T18:40:57.955Z,48.95
2023-02-11T18:43:24.716Z,47.03
2023-02-11T18:45:51.842Z,55.50
2023-02-11T18:48:19.229Z,51.08
2023-02-11T18:50:46.808Z,48.33
2023-02-11T18:53:15.998Z,49.15
2023-02-11T18:55:44.400Z,53.53
2023-02-11T18:58:12.043Z,49.75
2023-02-11T19:00:43.120Z,48.47
2023-02-11T19:03:10.011Z,51.25
2023-02-11T19:05:48.065Z,51.13
2023-02-11T19:08:15.504Z,41.28
2023-02-11T19:10:44.412Z,43.40
2023-02-11T19:13:11.538Z,45.80
2023-02-11T19:15:45.725Z,42.40
2023-02-11T19:18:16.404Z,40.92
2023-02-11T19:20:43.925Z,42.90
2023-02-11T19:23:11.373Z,45.53
2023-02-11T19:25:44.359Z,45.47
2023-02-11T19:28:11.180Z,50.17
2023-02-11T19:30:38.146Z,48.78
2023-02-11T19:33:05.183Z,50.42
2023-02-11T19:35:35.537Z,53.80
2023-02-11T19:38:03.750Z,45.45
2023-02-11T19:40:31.208Z,50.92
2023-02-11T19:42:57.962Z,54.60
2023-02-11T19:45:24.754Z,52.15
2023-02-11T19:47:55.188Z,49.25
2023-02-11T19:50:22.065Z,54.13
2023-02-11T19:52:48.897Z,48.75
2023-02-11T19:55:15.703Z,50.60
2023-02-11T19:57:42.495Z,51.30
2023-02-11T20:00:11.143Z,49.60
2023-02-11T20:02:39.013Z,66.82
2023-02-11T20:05:06.346Z,54.47
2023-02-11T20:07:33.151Z,64.03
2023-02-11T20:10:00.118Z,68.78
2023-02-11T20:12:26.904Z,70.82
2023-02-11T20:14:53.612Z,75.97
2023-02-11T20:17:20.379Z,60.20
2023-02-11T20:19:47.143Z,56.53
2023-02-11T20:22:14.143Z,74.35
2023-02-11T20:24:40.887Z,59.25
2023-02-11T20:27:08.569Z,58.95
2023-02-11T20:29:35.454Z,55.28
2023-02-11T20:32:03.584Z,64.55
2023-02-11T20:34:30.665Z,57.90
2023-02-11T20:36:57.423Z,56.60
2023-02-11T20:39:25.904Z,58.40
2023-02-11T20:41:53.995Z,56.92
2023-02-11T20:44:24.375Z,59.05
2023-02-11T20:46:54.133Z,64.32
2023-02-11T20:49:23.244Z,60.50
2023-02-11T20:51:51.546Z,61.75
2023-02-11T20:54:20.152Z,63.13
2023-02-11T20:56:48.515Z,63.63
2023-02-11T20:59:16.951Z,59.35
2023-02-11T21:01:46.823Z,58.53
2023-02-11T21:04:19.605Z,56.72
2023-02-11T21:06:50.049Z,59.67
2023-02-11T21:09:22.482Z,58.50
2023-02-11T21:11:51.642Z,57.40
2023-02-11T21:14:19.755Z,56.13
2023-02-11T21:16:47.340Z,57.10
2023-02-11T21:19:14.311Z,57.78
2023-02-11T21:21:41.938Z,60.05
2023-02-11T21:24:09.740Z,56.95
2023-02-11T21:26:37.653Z,56.13
2023-02-11T21:29:05.938Z,59.67
2023-02-11T21:31:34.407Z,56.78
2023-02-11T21:34:01.614Z,57.97
2023-02-11T21:36:29.617Z,54.30
2023-02-11T21:38:56.406Z,56.40
2023-02-11T21:41:23.191Z,57.35
2023-02-11T21:43:51.181Z,55.13
2023-02-11T21:46:19.545Z,50.83
2023-02-11T21:48:46.606Z,48.55
2023-02-11T21:51:16.115Z,45.70
2023-02-11T21:53:42.922Z,49.10
2023-02-11T21:56:12.921Z,51.83
2023-02-11T21:58:39.712Z,55.53
2023-02-11T22:01:18.769Z,53.20
2023-02-11T22:03:46.495Z,57.13
2023-02-11T22:06:26.312Z,59.38
2023-02-11T22:08:54.744Z,57.47
2023-02-11T22:11:21.784Z,60.42
2023-02-11T22:13:48.797Z,60.47
2023-02-11T22:16:16.769Z,55.65
2023-02-11T22:18:46.989Z,54.53
2023-02-11T22:21:17.349Z,54.53
2023-02-11T22:23:44.879Z,54.35
2023-02-11T22:26:14.859Z,52.90
2023-02-11T22:28:41.832Z,56.38
2023-02-11T22:31:13.503Z,52.28
2023-02-11T22:33:40.914Z,61.45
2023-02-11T22:36:14.040Z,54.85
2023-02-11T22:38:40.844Z,49.95
2023-02-11T22:41:10.237Z,49.10
2023-02-11T22:43:38.378Z,50.78
2023-02-11T22:46:07.566Z,50.28
2023-02-11T22:48:35.419Z,59.10
2023-02-11T22:51:07.605Z,53.85
2023-02-11T22:53:34.465Z,54.78
2023-02-11T22:56:07.188Z,57.83
2023-02-11T22:58:35.285Z,60.97
2023-02-11T23:01:02.406Z,69.15
2023-02-11T23:03:29.402Z,64.30
2023-02-11T23:05:58.191Z,64.60
2023-02-11T23:08:25.642Z,70.60
2023-02-11T23:10:52.396Z,77.35
2023-02-11T23:13:19.149Z,72.60
2023-02-11T23:15:46.633Z,72.97
2023-02-11T23:18:14.407Z,70.15
2023-02-11T23:20:44.246Z,66.40
2023-02-11T23:23:11.066Z,59.60
2023-02-11T23:25:43.451Z,64.13
2023-02-11T23:28:11.091Z,65.82
2023-02-11T23:30:38.022Z,63.97
2023-02-11T23:33:05.697Z,58.90
2023-02-11T23:35:32.453Z,66.82
2023-02-11T23:37:59.173Z,66.68
2023-02-11T23:40:25.915Z,62.53
2023-02-11T23:42:52.672Z,69.57
2023-02-11T23:45:19.404Z,65.75
2023-02-11T23:47:47.649Z,70.75
2023-02-11T23:50:14.518Z,62.60
2023-02-11T23:52:41.280Z,59.08
2023-02-11T23:55:08.391Z,60.88
2023-02-11T23:57:35.601Z,62.50
